Time;durP1;ratioP1;P1;durP2;ratioP2;P2;SDS_P1;SDS_P2;PMS_P1;PMS_P2;Temp;Humidity;BMP_temperature;BMP_pressure;BME280_temperature;BME280_humidity;BME280_pressure;Samples;Min_cycle;Max_cycle;Signal;HPM_P1;HPM_P2
2021/10/20 00:01:50;;;;;;;16.97;14.67;;;8.30;1.00;;;;;;5039576;28;20203;-81
2021/10/20 00:04:17;;;;;;;15.17;13.77;;;8.20;1.00;;;;;;5039349;28;20199;-82
2021/10/20 00:06:43;;;;;;;15.87;14.37;;;8.00;1.00;;;;;;5039932;28;20286;-82
2021/10/20 00:09:08;;;;;;;15.03;13.63;;;8.00;1.00;;;;;;5038996;28;20293;-82
2021/10/20 00:11:35;;;;;;;16.67;14.93;;;;;;;;;;5041281;28;20298;-82
2021/10/20 00:14:00;;;;;;;14.53;13.07;;;8.00;1.00;;;;;;5042306;28;20196;-81
2021/10/20 00:16:28;;;;;;;14.63;12.63;;;7.90;1.00;;;;;;5036291;28;20244;-81
2021/10/20 00:18:54;;;;;;;14.33;13.07;;;7.90;1.00;;;;;;5045487;28;20207;-81
2021/10/20 00:21:25;;;;;;;14.73;13.33;;;7.90;1.00;;;;;;5041296;28;20183;-81
2021/10/20 00:23:51;;;;;;;13.70;12.30;;;7.90;1.00;;;;;;5038133;28;20658;-81
2021/10/20 00:26:17;;;;;;;14.20;12.90;;;7.90;1.00;;;;;;5039993;28;20192;-81
2021/10/20 00:28:42;;;;;;;14.73;13.33;;;8.00;1.00;;;;;;5038693;28;20261;-81
2021/10/20 00:31:08;;;;;;;13.27;11.93;;;;;;;;;;5041238;28;20187;-81
2021/10/20 00:33:34;;;;;;;14.97;13.53;;;8.00;1.00;;;;;;5043553;28;20270;-80
2021/10/20 00:36:03;;;;;;;18.07;15.93;;;;;;;;;;5038264;28;20206;-81
2021/10/20 00:38:29;;;;;;;15.07;13.57;;;8.10;1.00;;;;;;5029680;28;20280;-81
2021/10/20 00:40:55;;;;;;;14.63;13.13;;;8.00;1.00;;;;;;5040960;28;20191;-81
2021/10/20 00:43:22;;;;;;;15.10;13.70;;;8.00;1.00;;;;;;5054998;28;20705;-82
2021/10/20 00:45:48;;;;;;;15.93;14.50;;;8.00;1.00;;;;;;5045642;28;20215;-81
2021/10/20 00:48:15;;;;;;;14.10;12.90;;;;;;;;;;5041512;28;20240;-81
2021/10/20 00:50:41;;;;;;;14.73;13.30;;;;;;;;;;5033944;28;20199;-80
2021/10/20 00:53:07;;;;;;;15.40;13.93;;;7.80;1.00;;;;;;5043329;28;20225;-81
2021/10/20 00:55:33;;;;;;;17.23;15.53;;;7.80;1.00;;;;;;5052314;28;20191;-81
2021/10/20 00:57:59;;;;;;;15.87;14.37;;;7.80;1.00;;;;;;5050759;28;20202;-80
2021/10/20 01:00:25;;;;;;;16.10;14.57;;;9.90;1.00;;;;;;5039115;28;20183;-81
2021/10/20 01:02:53;;;;;;;15.77;13.57;;;7.70;1.00;;;;;;5039418;28;20244;-81
2021/10/20 01:05:19;;;;;;;15.40;13.83;;;;;;;;;;5051903;28;20192;-82
2021/10/20 01:07:45;;;;;;;13.77;12.60;;;7.70;1.00;;;;;;5031027;28;20205;-82
2021/10/20 01:10:11;;;;;;;14.13;12.83;;;7.60;1.00;;;;;;5051641;28;20263;-84
2021/10/20 01:12:38;;;;;;;15.13;13.57;;;7.60;1.00;;;;;;5046352;28;20214;-83
2021/10/20 01:15:07;;;;;;;15.03;12.50;;;7.60;1.00;;;;;;5055699;28;20262;-83
2021/10/20 01:17:33;;;;;;;14.33;12.83;;;7.60;1.00;;;;;;5051324;28;20655;-83
2021/10/20 01:20:01;;;;;;;16.13;14.63;;;7.60;1.00;;;;;;5051637;28;20206;-83
2021/10/20 01:22:27;;;;;;;15.37;13.87;;;;;;;;;;5044105;28;20184;-83
2021/10/20 01:24:53;;;;;;;16.57;14.73;;;7.60;1.00;;;;;;5033909;28;20206;-83
2021/10/20 01:27:19;;;;;;;16.17;14.47;;;;;;;;;;5037796;28;20198;-83
2021/10/20 01:29:45;;;;;;;17.73;15.97;;;;;;;;;;5038640;28;20599;-83
2021/10/20 01:32:11;;;;;;;20.73;15.63;;;7.50;1.00;;;;;;5043772;28;20246;-83
2021/10/20 01:34:37;;;;;;;15.50;14.10;;;7.50;1.00;;;;;;5037001;28;20188;-83
2021/10/20 01:37:05;;;;;;;16.37;14.60;;;7.50;1.00;;;;;;5032287;28;20254;-83
2021/10/20 01:39:32;;;;;;;14.63;13.27;;;7.50;1.00;;;;;;5050718;28;20460;-83
2021/10/20 01:41:59;;;;;;;13.83;12.43;;;;;;;;;;5066575;28;20278;-83
2021/10/20 01:44:25;;;;;;;14.63;13.17;;;;;;;;;;5037623;28;20193;-83
2021/10/20 01:46:51;;;;;;;14.57;12.40;;;7.50;1.00;;;;;;5033374;28;20600;-83
2021/10/20 01:49:17;;;;;;;13.33;12.13;;;7.50;1.00;;;;;;5027010;28;20187;-83
2021/10/20 01:51:43;;;;;;;15.77;13.90;;;9.90;1.00;;;;;;5051490;28;20201;-83
2021/10/20 01:54:09;;;;;;;13.90;12.70;;;7.50;1.00;;;;;;5068626;28;20192;-83
2021/10/20 01:56:35;;;;;;;14.37;13.07;;;7.60;1.00;;;;;;5025254;28;20183;-83
2021/10/20 01:59:01;;;;;;;15.10;13.67;;;;;;;;;;5039080;28;20203;-83
2021/10/20 02:01:27;;;;;;;13.87;12.57;;;;;;;;;;5064061;28;20289;-83
2021/10/20 02:03:53;;;;;;;13.23;12.00;;;7.60;1.00;;;;;;5046246;28;20242;-83
2021/10/20 02:06:20;;;;;;;15.00;12.63;;;7.60;1.00;;;;;;5037653;28;20215;-83
2021/10/20 02:08:47;;;;;;;13.60;12.30;;;7.90;1.00;;;;;;5034025;28;20279;-84
2021/10/20 02:11:13;;;;;;;15.00;11.80;;;7.60;1.00;;;;;;5051315;28;20184;-83
2021/10/20 02:13:39;;;;;;;12.90;11.80;;;7.60;1.00;;;;;;5036138;28;20256;-83
2021/10/20 02:16:05;;;;;;;13.57;11.30;;;7.60;1.00;;;;;;5033983;28;20203;-83
2021/10/20 02:18:31;;;;;;;13.70;12.10;;;7.60;1.00;;;;;;5050711;28;20190;-83
2021/10/20 02:20:57;;;;;;;12.83;11.53;;;7.60;1.00;;;;;;5045543;28;20195;-83
2021/10/20 02:23:23;;;;;;;12.10;11.07;;;7.60;1.00;;;;;;5046912;28;20194;-83
2021/10/20 02:25:49;;;;;;;11.77;10.57;;;7.60;1.00;;;;;;5050291;28;20812;-83
2021/10/20 02:28:15;;;;;;;14.00;12.70;;;7.70;1.00;;;;;;5035330;28;20201;-83
2021/10/20 02:30:41;;;;;;;15.73;10.90;;;7.60;1.00;;;;;;5043767;28;20322;-83
2021/10/20 02:33:09;;;;;;;11.70;10.60;;;9.90;1.00;;;;;;5023711;28;20207;-83
2021/10/20 02:35:35;;;;;;;12.63;11.37;;;8.20;1.00;;;;;;5049950;28;20188;-83
2021/10/20 02:38:01;;;;;;;13.30;10.93;;;;;;;;;;5040444;28;20172;-83
2021/10/20 02:40:27;;;;;;;11.33;10.33;;;7.90;1.00;;;;;;5049059;28;20295;-83
2021/10/20 02:42:52;;;;;;;11.67;10.60;;;10.30;1.00;;;;;;5046322;28;20258;-83
2021/10/20 02:45:18;;;;;;;12.07;10.97;;;8.10;1.00;;;;;;5026397;28;20647;-83
2021/10/20 02:47:44;;;;;;;13.27;10.27;;;8.10;1.00;;;;;;5038579;28;20184;-83
2021/10/20 02:50:10;;;;;;;12.00;10.80;;;;;;;;;;5050232;28;20333;-83
2021/10/20 02:52:36;;;;;;;11.27;10.20;;;8.10;1.00;;;;;;5055337;28;20215;-83
2021/10/20 02:55:03;;;;;;;11.77;10.73;;;8.10;1.00;;;;;;5039406;28;20205;-83
2021/10/20 02:57:29;;;;;;;11.57;10.47;;;;;;;;;;5031457;28;20675;-83
2021/10/20 02:59:55;;;;;;;11.83;10.60;;;8.10;1.00;;;;;;5050664;28;20266;-83
2021/10/20 03:02:20;;;;;;;11.63;10.53;;;8.10;1.00;;;;;;5048934;28;20195;-83
2021/10/20 03:04:47;;;;;;;11.53;9.77;;;8.00;1.00;;;;;;5029959;28;20224;-83
2021/10/20 03:07:13;;;;;;;12.57;11.27;;;;;;;;;;5051864;28;20199;-83
2021/10/20 03:09:39;;;;;;;11.97;10.67;;;8.10;1.00;;;;;;5041738;28;20209;-83
2021/10/20 03:12:05;;;;;;;11.30;10.17;;;8.10;1.00;;;;;;5050555;28;20825;-83
2021/10/20 03:14:30;;;;;;;11.23;10.23;;;8.10;1.00;;;;;;5042332;28;20589;-83
2021/10/20 03:16:56;;;;;;;11.13;10.13;;;8.10;1.00;;;;;;5053497;28;20198;-84
2021/10/20 03:19:22;;;;;;;11.30;10.03;;;;;;;;;;5039119;28;20191;-83
2021/10/20 03:21:48;;;;;;;12.33;10.83;;;;;;;;;;5034315;28;20188;-83
2021/10/20 03:24:14;;;;;;;11.03;9.93;;;8.00;1.00;;;;;;5038015;28;20192;-83
2021/10/20 03:26:40;;;;;;;10.97;9.77;;;8.00;1.00;;;;;;5046373;28;20241;-83
2021/10/20 03:29:06;;;;;;;11.43;10.13;;;8.00;1.00;;;;;;5041747;28;20187;-83
2021/10/20 03:31:31;;;;;;;11.17;10.07;;;7.90;1.00;;;;;;5040284;28;20214;-83
2021/10/20 03:33:57;;;;;;;9.60;8.90;;;8.00;1.00;;;;;;5045899;28;20215;-83
2021/10/20 03:36:23;;;;;;;10.13;9.23;;;;;;;;;;5055066;28;20986;-84
2021/10/20 03:38:50;;;;;;;10.63;9.63;;;8.00;1.00;;;;;;5069051;28;20626;-83
2021/10/20 03:41:15;;;;;;;10.07;9.20;;;8.00;1.00;;;;;;5052234;28;20575;-83
2021/10/20 03:43:41;;;;;;;10.83;9.73;;;8.00;1.00;;;;;;5036620;28;20198;-83
2021/10/20 03:46:07;;;;;;;10.70;9.53;;;8.00;1.00;;;;;;5072178;28;20302;-83
2021/10/20 03:48:33;;;;;;;11.17;9.60;;;8.00;1.00;;;;;;5043471;28;20215;-83
2021/10/20 03:50:59;;;;;;;12.07;9.47;;;8.60;1.00;;;;;;5053334;28;20796;-84
2021/10/20 03:53:25;;;;;;;10.63;9.63;;;8.00;1.00;;;;;;5031575;28;20215;-83
2021/10/20 03:55:50;;;;;;;10.03;9.17;;;8.00;1.00;;;;;;5064110;28;20199;-83
2021/10/20 03:58:17;;;;;;;12.73;9.47;;;8.50;1.00;;;;;;5065929;28;20218;-83
2021/10/20 04:00:43;;;;;;;11.13;9.93;;;8.00;1.00;;;;;;5038446;28;20183;-83
2021/10/20 04:03:09;;;;;;;10.17;8.50;;;8.00;1.00;;;;;;5036516;28;20207;-84
2021/10/20 04:05:35;;;;;;;9.87;8.97;;;8.00;1.00;;;;;;5054138;28;20207;-84
2021/10/20 04:08:00;;;;;;;9.77;8.90;;;10.70;1.00;;;;;;5034007;28;20218;-84
2021/10/20 04:10:26;;;;;;;9.50;8.70;;;8.60;1.00;;;;;;5045971;28;20233;-84
2021/10/20 04:12:53;;;;;;;9.57;8.37;;;7.90;1.00;;;;;;5029020;28;20307;-84
2021/10/20 04:15:21;;;;;;;9.63;8.70;;;8.40;1.00;;;;;;5065829;28;20206;-84
2021/10/20 04:17:47;;;;;;;10.27;9.37;;;8.50;1.00;;;;;;5047068;28;20171;-84
2021/10/20 04:20:15;;;;;;;12.03;9.17;;;7.80;1.00;;;;;;5042033;28;20187;-84
2021/10/20 04:22:42;;;;;;;10.33;9.30;;;7.80;1.00;;;;;;5039028;28;20187;-84
2021/10/20 04:25:09;;;;;;;9.90;9.10;;;7.80;1.00;;;;;;5028246;28;20282;-84
2021/10/20 04:27:35;;;;;;;9.57;8.17;;;8.40;1.00;;;;;;5044283;28;20222;-84
2021/10/20 04:30:03;;;;;;;10.37;9.27;;;8.60;1.00;;;;;;5054772;28;20685;-84
2021/10/20 04:32:29;;;;;;;9.37;8.47;;;7.90;1.00;;;;;;5041267;28;20206;-84
2021/10/20 04:34:55;;;;;;;9.23;8.43;;;7.90;1.00;;;;;;5039508;28;20231;-84
2021/10/20 04:37:25;;;;;;;10.37;9.27;;;;;;;;;;5068058;28;20595;-84
2021/10/20 04:39:58;;;;;;;11.03;9.90;;;8.10;1.00;;;;;;5067469;28;20211;-84
2021/10/20 04:42:25;;;;;;;11.90;9.30;;;8.60;1.00;;;;;;5051129;28;20206;-83
2021/10/20 04:44:51;;;;;;;10.80;9.83;;;11.20;1.00;;;;;;5031332;28;20245;-84
2021/10/20 04:47:16;;;;;;;10.57;9.50;;;8.70;1.00;;;;;;5049341;28;20261;-84
2021/10/20 04:49:43;;;;;;;10.47;9.47;;;8.80;1.00;;;;;;5046666;28;20200;-84
2021/10/20 04:52:09;;;;;;;9.73;8.83;;;9.00;1.00;;;;;;5050057;28;20238;-84
2021/10/20 04:54:34;;;;;;;9.70;8.77;;;8.90;1.00;;;;;;5042025;28;20183;-84
2021/10/20 04:57:00;;;;;;;9.47;8.57;;;9.00;1.00;;;;;;5025884;28;20188;-84
2021/10/20 04:59:28;;;;;;;10.90;9.90;;;9.00;1.00;;;;;;5063385;28;20192;-84
2021/10/20 05:01:54;;;;;;;9.77;8.87;;;8.90;1.00;;;;;;5031933;28;20561;-84
2021/10/20 05:04:19;;;;;;;9.67;8.80;;;9.00;1.00;;;;;;5035400;28;20211;-84
2021/10/20 05:06:45;;;;;;;10.63;9.63;;;11.40;1.00;;;;;;5047241;28;20550;-84
2021/10/20 05:09:11;;;;;;;10.10;9.20;;;;;;;;;;5069058;28;20179;-84
2021/10/20 05:11:37;;;;;;;10.97;9.57;;;9.10;1.00;;;;;;5030240;28;20653;-84
2021/10/20 05:14:03;;;;;;;10.20;9.13;;;;;;;;;;5031101;28;20233;-84
2021/10/20 05:16:29;;;;;;;9.47;8.67;;;;;;;;;;5052025;28;20286;-85
2021/10/20 05:18:54;;;;;;;10.73;9.73;;;9.00;1.00;;;;;;5041907;28;20195;-84
2021/10/20 05:21:20;;;;;;;11.00;9.73;;;8.90;1.00;;;;;;5035175;28;20205;-84
2021/10/20 05:23:49;;;;;;;10.50;9.47;;;9.00;1.00;;;;;;5034878;28;20203;-84
2021/10/20 05:26:15;;;;;;;10.47;9.47;;;8.90;1.00;;;;;;5037306;28;20189;-84
2021/10/20 05:28:41;;;;;;;9.33;8.53;;;;;;;;;;5036018;28;20735;-84
2021/10/20 05:31:07;;;;;;;9.10;8.30;;;9.00;1.00;;;;;;5036040;28;20195;-84
2021/10/20 05:33:33;;;;;;;9.50;8.60;;;;;;;;;;5048729;28;20222;-84
2021/10/20 05:35:59;;;;;;;9.63;8.70;;;;;;;;;;5029983;28;20218;-84
2021/10/20 05:38:24;;;;;;;8.87;8.10;;;8.90;1.00;;;;;;5031748;28;20192;-84
2021/10/20 05:40:50;;;;;;;11.70;9.30;;;9.50;1.00;;;;;;5030677;28;20285;-84
2021/10/20 05:43:16;;;;;;;9.57;8.63;;;8.90;1.00;;;;;;5030875;28;20188;-84
2021/10/20 05:45:41;;;;;;;9.87;8.97;;;8.80;1.00;;;;;;5034010;28;20187;-84
2021/10/20 05:48:07;;;;;;;9.37;8.57;;;11.50;1.00;;;;;;5066919;28;20286;-84
2021/10/20 05:50:33;;;;;;;9.57;8.77;;;9.00;1.00;;;;;;5021176;28;20207;-84
2021/10/20 05:52:59;;;;;;;9.83;8.90;;;;;;;;;;5039811;28;20243;-85
2021/10/20 05:55:25;;;;;;;12.43;9.73;;;;;;;;;;5032858;28;20250;-84
2021/10/20 05:57:50;;;;;;;11.90;8.93;;;9.10;1.00;;;;;;5043537;28;20213;-84
2021/10/20 06:00:16;;;;;;;10.20;9.07;;;9.20;1.00;;;;;;5046198;28;20187;-84
2021/10/20 06:02:42;;;;;;;11.10;9.00;;;11.40;1.00;;;;;;5035904;28;21050;-84
2021/10/20 06:05:09;;;;;;;10.47;9.53;;;9.30;1.00;;;;;;5035182;28;20306;-84
2021/10/20 06:07:43;;;;;;;10.20;9.23;;;9.30;1.00;;;;;;5035384;28;20199;-84
2021/10/20 06:10:10;;;;;;;10.07;9.27;;;9.30;1.00;;;;;;5038298;28;20228;-84
2021/10/20 06:12:36;;;;;;;9.90;9.00;;;;;;;;;;5035975;28;20214;-84
2021/10/20 06:15:02;;;;;;;9.67;8.87;;;9.40;1.00;;;;;;5034960;28;20247;-84
2021/10/20 06:17:28;;;;;;;11.63;10.23;;;9.50;1.00;;;;;;5049358;28;20232;-84
2021/10/20 06:19:53;;;;;;;10.33;9.33;;;9.60;1.00;;;;;;5051548;28;20259;-82
2021/10/20 06:22:19;;;;;;;10.07;9.13;;;10.80;1.00;;;;;;5039628;28;20198;-83
2021/10/20 06:24:45;;;;;;;10.50;9.60;;;9.60;1.00;;;;;;5037893;28;20241;-82
2021/10/20 06:27:11;;;;;;;10.87;9.13;;;9.60;1.00;;;;;;5074544;28;20187;-83
2021/10/20 06:29:36;;;;;;;9.93;9.07;;;9.70;1.00;;;;;;5059668;28;20195;-83
2021/10/20 06:32:02;;;;;;;10.33;8.93;;;9.70;1.00;;;;;;5035296;28;20188;-83
2021/10/20 06:34:28;;;;;;;8.37;7.67;;;9.80;1.00;;;;;;5040284;28;20238;-83
2021/10/20 06:36:54;;;;;;;9.33;8.43;;;10.20;1.00;;;;;;5055303;28;20213;-83
2021/10/20 06:39:23;;;;;;;8.90;8.00;;;10.50;1.00;;;;;;5028669;28;20198;-83
2021/10/20 06:41:50;;;;;;;8.90;8.10;;;;;;;;;;5036509;28;20188;-83
2021/10/20 06:44:16;;;;;;;8.97;8.17;;;10.20;1.00;;;;;;5033032;28;20243;-83
2021/10/20 06:46:42;;;;;;;9.30;8.40;;;;;;;;;;5069406;28;20231;-83
2021/10/20 06:49:08;;;;;;;8.70;8.00;;;;;;;;;;5068292;28;20207;-82
2021/10/20 06:51:34;;;;;;;10.67;8.93;;;10.50;1.00;;;;;;5035269;28;20235;-81
2021/10/20 06:54:00;;;;;;;8.53;7.73;;;;;;;;;;5069969;28;20218;-82
2021/10/20 06:56:26;;;;;;;9.00;7.73;;;10.60;1.00;;;;;;5041350;28;21150;-82
2021/10/20 06:58:52;;;;;;;7.80;7.10;;;;;;;;;;5056377;28;20192;-83
2021/10/20 07:01:18;;;;;;;8.93;8.13;;;;;;;;;;5055646;28;20221;-82
2021/10/20 07:03:44;;;;;;;8.57;7.87;;;10.70;1.00;;;;;;5040539;28;20239;-83
2021/10/20 07:06:11;;;;;;;8.10;7.40;;;;;;;;;;5034644;28;20656;-78
2021/10/20 07:08:37;;;;;;;9.13;8.03;;;10.70;1.00;;;;;;5034193;28;20198;-78
2021/10/20 07:11:03;;;;;;;7.70;7.10;;;10.80;1.00;;;;;;5027276;28;20210;-78
2021/10/20 07:13:29;;;;;;;11.03;7.50;;;10.80;1.00;;;;;;5028605;28;20216;-77
2021/10/20 07:15:57;;;;;;;8.40;7.70;;;;;;;;;;5040789;28;20235;-80
2021/10/20 07:18:24;;;;;;;8.70;7.90;;;;;;;;;;5033664;28;20190;-78
2021/10/20 07:20:49;;;;;;;8.13;7.33;;;11.10;1.00;;;;;;5033362;28;20276;-78
2021/10/20 07:23:15;;;;;;;8.43;7.73;;;11.10;1.00;;;;;;5032057;28;20206;-79
2021/10/20 07:25:41;;;;;;;7.90;7.23;;;11.20;1.00;;;;;;5043820;28;20675;-79
2021/10/20 07:28:09;;;;;;;7.87;7.27;;;11.50;1.00;;;;;;5030765;28;20202;-78
2021/10/20 07:30:35;;;;;;;8.17;7.47;;;;;;;;;;5066801;28;20190;-78
2021/10/20 07:33:01;;;;;;;8.03;7.33;;;11.40;1.00;;;;;;5024151;28;20683;-78
2021/10/20 07:35:27;;;;;;;8.33;7.53;;;11.50;1.00;;;;;;5046919;28;20299;-78
2021/10/20 07:37:52;;;;;;;7.93;7.10;;;11.60;1.00;;;;;;5035239;28;20194;-77
2021/10/20 07:40:19;;;;;;;8.23;7.53;;;11.70;1.00;;;;;;5028975;28;20562;-77
2021/10/20 07:42:45;;;;;;;9.87;7.47;;;11.80;1.00;;;;;;5032745;28;20662;-77
2021/10/20 07:45:18;;;;;;;7.80;7.00;;;11.90;1.00;;;;;;5032949;28;20187;-77
2021/10/20 07:47:45;;;;;;;8.87;6.80;;;12.70;1.00;;;;;;5029097;28;20198;-77
2021/10/20 07:50:11;;;;;;;7.93;7.17;;;12.10;1.00;;;;;;5029745;28;20192;-77
2021/10/20 07:52:37;;;;;;;7.90;7.20;;;12.30;1.00;;;;;;5028841;28;20210;-77
2021/10/20 07:55:05;;;;;;;8.47;7.67;;;12.20;1.00;;;;;;5029620;28;20196;-77
2021/10/20 07:57:31;;;;;;;8.17;7.40;;;12.20;1.00;;;;;;5023341;28;20202;-77
2021/10/20 07:59:57;;;;;;;7.67;6.97;;;12.20;1.00;;;;;;5026772;28;20196;-78
2021/10/20 08:02:23;;;;;;;7.33;6.63;;;12.30;1.00;;;;;;5038092;28;20194;-76
2021/10/20 08:04:48;;;;;;;7.47;6.70;;;12.20;1.00;;;;;;5059529;28;20275;-77
2021/10/20 08:07:14;;;;;;;8.27;7.27;;;12.30;1.00;;;;;;5026597;28;20198;-77
2021/10/20 08:09:40;;;;;;;7.23;6.00;;;12.30;1.00;;;;;;5033771;28;20199;-77
2021/10/20 08:12:06;;;;;;;6.80;6.20;;;12.50;1.00;;;;;;5044735;28;20203;-77
2021/10/20 08:14:33;;;;;;;7.50;6.63;;;12.50;1.00;;;;;;5033495;28;20632;-77
2021/10/20 08:16:59;;;;;;;6.43;5.83;;;12.70;1.00;;;;;;5044099;28;20225;-77
2021/10/20 08:19:25;;;;;;;6.67;6.10;;;12.70;1.00;;;;;;5045905;28;20199;-77
2021/10/20 08:21:50;;;;;;;7.37;6.67;;;12.90;1.00;;;;;;5033599;28;20271;-78
2021/10/20 08:24:16;;;;;;;5.53;5.03;;;12.90;1.00;;;;;;5033593;28;20196;-78
2021/10/20 08:26:41;;;;;;;6.50;5.90;;;13.00;1.00;;;;;;5031921;28;20683;-78
2021/10/20 08:29:10;;;;;;;6.63;6.03;;;13.00;1.00;;;;;;5045762;28;20193;-79
2021/10/20 08:31:36;;;;;;;6.03;5.53;;;13.10;1.00;;;;;;5058612;28;20577;-79
2021/10/20 08:34:01;;;;;;;6.50;5.90;;;13.20;1.00;;;;;;5027075;28;20222;-78
2021/10/20 08:36:27;;;;;;;6.37;5.87;;;13.30;1.00;;;;;;5060437;28;20193;-77
2021/10/20 08:38:52;;;;;;;6.10;5.60;;;13.90;1.00;;;;;;5032367;28;20195;-77
2021/10/20 08:41:19;;;;;;;5.97;5.37;;;13.40;1.00;;;;;;5046917;28;20557;-78
2021/10/20 08:43:45;;;;;;;5.87;5.30;;;13.30;1.00;;;;;;5033084;28;20536;-78
2021/10/20 08:46:11;;;;;;;6.93;6.43;;;13.30;1.00;;;;;;5021698;28;20198;-78
2021/10/20 08:48:37;;;;;;;6.80;6.10;;;13.40;1.00;;;;;;5032886;28;20188;-78
2021/10/20 08:51:04;;;;;;;6.37;5.77;;;13.50;1.00;;;;;;5029980;28;20222;-78
2021/10/20 08:53:30;;;;;;;7.57;5.50;;;13.40;1.00;;;;;;5032860;28;20283;-78
2021/10/20 08:55:57;;;;;;;6.23;5.73;;;13.50;1.00;;;;;;5032167;28;20189;-78
2021/10/20 08:58:23;;;;;;;6.47;5.90;;;13.60;1.00;;;;;;5028704;28;20194;-78
2021/10/20 09:00:49;;;;;;;6.77;6.07;;;13.50;1.00;;;;;;5029640;28;20207;-77
2021/10/20 09:03:15;;;;;;;6.53;5.93;;;13.80;1.00;;;;;;5049056;28;20713;-77
2021/10/20 09:05:41;;;;;;;5.70;5.20;;;13.80;1.00;;;;;;5057511;28;20821;-77
2021/10/20 09:08:07;;;;;;;6.03;5.40;;;13.90;1.00;;;;;;5030010;28;20198;-78
2021/10/20 09:10:33;;;;;;;6.07;5.57;;;14.50;1.00;;;;;;5039335;28;20800;-78
2021/10/20 09:13:00;;;;;;;7.40;6.00;;;13.90;1.00;;;;;;5034330;28;20251;-80
2021/10/20 09:15:29;;;;;;;8.70;5.60;;;14.00;1.00;;;;;;5036152;28;20222;-79
2021/10/20 09:18:01;;;;;;;5.70;5.20;;;14.50;1.00;;;;;;5060573;28;20196;-79
2021/10/20 09:20:27;;;;;;;5.70;5.03;;;14.30;1.00;;;;;;5070699;28;20194;-77
2021/10/20 09:22:56;;;;;;;5.97;5.47;;;14.10;1.00;;;;;;5033466;28;20194;-79
2021/10/20 09:25:26;;;;;;;5.97;5.37;;;14.20;1.00;;;;;;5029496;28;20239;-79
2021/10/20 09:27:53;;;;;;;6.30;5.80;;;14.30;1.00;;;;;;5033861;28;20642;-79
2021/10/20 09:30:20;;;;;;;5.40;4.90;;;14.40;1.00;;;;;;5032609;28;20198;-79
2021/10/20 09:32:50;;;;;;;6.20;5.70;;;14.50;1.00;;;;;;5031412;28;20237;-79
2021/10/20 09:35:16;;;;;;;6.07;5.57;;;16.30;1.00;;;;;;5064920;28;20195;-78
2021/10/20 09:37:43;;;;;;;6.20;5.70;;;14.70;1.00;;;;;;5036531;28;20301;-78
2021/10/20 09:40:11;;;;;;;6.17;5.67;;;14.50;1.00;;;;;;5031873;28;20205;-79
2021/10/20 09:42:45;;;;;;;5.47;5.03;;;14.60;1.00;;;;;;5048392;28;20670;-78
2021/10/20 09:45:16;;;;;;;6.00;5.47;;;14.80;1.00;;;;;;5033394;28;20198;-79
2021/10/20 09:47:43;;;;;;;6.30;5.13;;;;;;;;;;5037401;28;20203;-79
2021/10/20 09:50:09;;;;;;;5.40;4.83;;;15.20;1.00;;;;;;5033049;28;20239;-79
2021/10/20 09:52:52;;;;;;;5.23;4.83;;;15.20;1.00;;;;;;5050146;28;20223;-79
2021/10/20 09:55:31;;;;;;;5.27;4.87;;;15.40;1.00;;;;;;5036581;28;20263;-79
2021/10/20 09:58:11;;;;;;;5.70;5.20;;;15.50;1.00;;;;;;5032097;28;20192;-79
2021/10/20 10:00:37;;;;;;;5.37;4.97;;;15.60;1.00;;;;;;5034730;28;20318;-79
2021/10/20 10:03:05;;;;;;;5.40;4.87;;;15.70;1.00;;;;;;5036134;28;20279;-80
2021/10/20 10:05:31;;;;;;;5.97;4.47;;;15.70;1.00;;;;;;5071209;28;20207;-78
2021/10/20 10:07:57;;;;;;;4.97;4.57;;;15.90;1.00;;;;;;5033596;28;20193;-79
2021/10/20 10:10:23;;;;;;;4.57;4.17;;;16.00;1.00;;;;;;5039041;28;20205;-80
2021/10/20 10:12:54;;;;;;;5.17;4.73;;;16.30;1.00;;;;;;5033329;28;20209;-79
2021/10/20 10:15:21;;;;;;;4.53;4.23;;;16.30;1.00;;;;;;5064795;28;20655;-79
2021/10/20 10:17:50;;;;;;;5.37;4.47;;;16.40;1.00;;;;;;5039592;28;20189;-80
2021/10/20 10:20:17;;;;;;;7.90;4.50;;;16.60;1.00;;;;;;5037877;28;20200;-80
2021/10/20 10:22:52;;;;;;;5.10;4.70;;;16.60;1.00;;;;;;5055732;28;20676;-80
2021/10/20 10:25:32;;;;;;;4.37;3.97;;;16.60;1.00;;;;;;5038174;28;20188;-80
2021/10/20 10:28:17;;;;;;;5.77;4.60;;;16.60;1.00;;;;;;5040716;28;20192;-80
2021/10/20 10:30:47;;;;;;;6.27;5.03;;;16.60;1.00;;;;;;5016922;28;20202;-80
2021/10/20 10:33:24;;;;;;;4.83;4.43;;;16.60;1.00;;;;;;5036003;28;20205;-79
2021/10/20 10:36:09;;;;;;;5.70;4.90;;;16.60;1.00;;;;;;5038946;28;20251;-79
2021/10/20 10:38:42;;;;;;;5.00;4.60;;;16.40;1.00;;;;;;5042100;28;20276;-83
2021/10/20 10:41:23;;;;;;;4.90;4.50;;;16.40;1.00;;;;;;5038432;28;20198;-82
2021/10/20 10:44:05;;;;;;;4.33;3.93;;;16.30;1.00;;;;;;5040437;28;20201;-83
2021/10/20 10:46:51;;;;;;;5.07;4.47;;;16.20;1.00;;;;;;5040007;28;20181;-81
2021/10/20 10:49:31;;;;;;;4.60;4.23;;;16.20;1.00;;;;;;5038889;28;20677;-79
2021/10/20 10:52:33;;;;;;;4.83;4.40;;;16.30;1.00;;;;;;5054973;28;20522;-79
2021/10/20 10:55:14;;;;;;;4.90;4.13;;;16.30;1.00;;;;;;5033553;28;20197;-81
2021/10/20 10:57:54;;;;;;;3.77;3.47;;;16.30;1.00;;;;;;5044865;28;20285;-84
2021/10/20 11:00:20;;;;;;;4.40;4.10;;;16.30;1.00;;;;;;5049544;28;20550;-79
2021/10/20 11:02:51;;;;;;;4.40;4.00;;;;;;;;;;5036343;28;20213;-79
2021/10/20 11:05:22;;;;;;;3.87;3.57;;;16.50;1.00;;;;;;5034139;28;20226;-79
2021/10/20 11:07:50;;;;;;;4.33;4.00;;;16.70;1.00;;;;;;5056704;28;20308;-78
2021/10/20 11:10:17;;;;;;;5.20;4.27;;;16.80;1.00;;;;;;5032905;28;20262;-78
2021/10/20 11:12:51;;;;;;;5.23;4.83;;;16.80;1.00;;;;;;5036297;28;20653;-78
2021/10/20 11:15:18;;;;;;;3.90;3.60;;;16.90;1.00;;;;;;5034087;28;20574;-78
2021/10/20 11:17:44;;;;;;;4.00;3.60;;;18.30;1.00;;;;;;5048544;28;20245;-78
2021/10/20 11:20:12;;;;;;;4.00;3.70;;;16.90;1.00;;;;;;5051839;28;20201;-78
2021/10/20 11:22:38;;;;;;;3.77;3.50;;;16.90;1.00;;;;;;5051355;28;20872;-78
2021/10/20 11:25:09;;;;;;;3.73;3.43;;;17.00;1.00;;;;;;5034558;28;20198;-78
2021/10/20 11:27:37;;;;;;;5.10;3.97;;;17.00;1.00;;;;;;5050005;28;20229;-78
2021/10/20 11:30:07;;;;;;;3.50;3.30;;;17.00;1.00;;;;;;5034491;28;20198;-78
2021/10/20 11:32:35;;;;;;;3.23;3.00;;;17.00;1.00;;;;;;5030733;28;20217;-78
2021/10/20 11:35:01;;;;;;;4.83;3.80;;;17.00;1.00;;;;;;5034082;28;20189;-77
2021/10/20 11:37:27;;;;;;;3.43;3.23;;;16.90;1.00;;;;;;5025127;28;20293;-78
2021/10/20 11:40:00;;;;;;;3.67;3.37;;;16.80;1.00;;;;;;5023744;28;20217;-77
2021/10/20 11:42:26;;;;;;;3.43;3.23;;;16.70;1.00;;;;;;5031822;28;20233;-78
2021/10/20 11:44:52;;;;;;;3.63;3.30;;;16.60;1.00;;;;;;5037552;28;20304;-78
2021/10/20 11:47:19;;;;;;;3.97;3.30;;;16.60;1.00;;;;;;5059306;28;20679;-78
2021/10/20 11:49:51;;;;;;;3.57;3.27;;;16.60;1.00;;;;;;5052293;28;20216;-78
2021/10/20 11:52:19;;;;;;;3.70;3.47;;;16.60;1.00;;;;;;5034102;28;20221;-78
2021/10/20 11:54:45;;;;;;;3.70;3.40;;;16.60;1.00;;;;;;5029747;28;20191;-78
2021/10/20 11:57:14;;;;;;;5.70;3.37;;;16.50;1.00;;;;;;5026793;28;20198;-78
2021/10/20 11:59:40;;;;;;;3.93;3.63;;;16.50;1.00;;;;;;5039394;28;20809;-78
2021/10/20 12:02:08;;;;;;;4.50;4.10;;;16.70;1.00;;;;;;5035028;28;20273;-78
2021/10/20 12:04:33;;;;;;;4.60;3.50;;;16.40;1.00;;;;;;5046726;28;20908;-78
2021/10/20 12:07:02;;;;;;;3.60;3.30;;;16.40;1.00;;;;;;5034834;28;20314;-78
2021/10/20 12:09:30;;;;;;;3.23;3.03;;;16.40;1.00;;;;;;5048639;28;20204;-78
2021/10/20 12:11:57;;;;;;;3.37;3.17;;;16.50;1.00;;;;;;5049004;28;20194;-78
2021/10/20 12:14:29;;;;;;;3.97;3.63;;;16.50;1.00;;;;;;5051152;28;20227;-78
2021/10/20 12:16:56;;;;;;;3.40;3.20;;;16.50;1.00;;;;;;5029843;28;20198;-79
2021/10/20 12:19:23;;;;;;;7.30;3.60;;;16.60;1.00;;;;;;5036066;28;20277;-77
2021/10/20 12:21:49;;;;;;;3.13;2.90;;;16.60;1.00;;;;;;5023229;28;20663;-77
2021/10/20 12:24:18;;;;;;;3.17;2.97;;;16.50;1.00;;;;;;5028236;28;20311;-78
2021/10/20 12:26:45;;;;;;;3.60;3.30;;;16.50;1.00;;;;;;5030735;28;20218;-78
2021/10/20 12:29:13;;;;;;;4.87;3.70;;;16.80;1.00;;;;;;5033030;28;20201;-77
2021/10/20 12:31:39;;;;;;;3.90;3.60;;;16.50;1.00;;;;;;5047032;28;20200;-79
2021/10/20 12:34:06;;;;;;;4.20;3.90;;;16.30;1.00;;;;;;5032513;28;20225;-78
2021/10/20 12:36:35;;;;;;;4.27;3.87;;;16.40;1.00;;;;;;5030803;28;20562;-80
2021/10/20 12:39:03;;;;;;;3.47;3.17;;;16.50;1.00;;;;;;5032250;28;20192;-78
2021/10/20 12:41:35;;;;;;;5.07;3.90;;;16.50;1.00;;;;;;5031234;28;20189;-78
2021/10/20 12:44:07;;;;;;;3.70;3.47;;;16.40;1.00;;;;;;5034391;28;20194;-78
2021/10/20 12:46:40;;;;;;;3.93;3.63;;;16.50;1.00;;;;;;5043281;28;20192;-78
2021/10/20 12:49:08;;;;;;;3.40;3.20;;;16.40;1.00;;;;;;5033172;28;20186;-79
2021/10/20 12:51:36;;;;;;;3.97;3.60;;;16.60;1.00;;;;;;5025091;28;20189;-78
2021/10/20 12:54:05;;;;;;;4.27;3.87;;;16.40;1.00;;;;;;5030131;28;20216;-79
2021/10/20 12:56:32;;;;;;;4.17;3.77;;;16.50;1.00;;;;;;5039094;28;20191;-79
2021/10/20 12:59:18;;;;;;;3.90;3.50;;;16.60;1.00;;;;;;5030760;28;20280;-78
2021/10/20 13:01:43;;;;;;;4.30;3.90;;;16.50;1.00;;;;;;5027314;28;20223;-78
2021/10/20 13:04:10;;;;;;;3.97;3.53;;;16.80;1.00;;;;;;5031838;28;20214;-79
2021/10/20 13:06:37;;;;;;;4.33;3.30;;;16.90;1.00;;;;;;5054227;28;20239;-78